createdAt,value
2023-04-25T00:00:17.776Z,8.10
2023-04-25T00:02:44.558Z,8.07
2023-04-25T00:05:12.047Z,8.08
2023-04-25T00:07:40.262Z,8.10
2023-04-25T00:10:08.597Z,8.13
2023-04-25T00:12:35.297Z,8.15
2023-04-25T00:15:02.033Z,8.17
2023-04-25T00:17:29.157Z,8.17
2023-04-25T00:19:56.873Z,8.15
2023-04-25T00:22:23.641Z,8.13
2023-04-25T00:24:51.801Z,8.11
2023-04-25T00:27:18.774Z,8.12
2023-04-25T00:29:46.531Z,8.12
2023-04-25T00:32:13.168Z,8.11
2023-04-25T00:34:39.839Z,8.11
2023-04-25T00:37:07.128Z,8.09
2023-04-25T00:39:33.834Z,8.09
2023-04-25T00:42:03.086Z,8.07
2023-04-25T00:44:30.674Z,8.04
2023-04-25T00:46:58.522Z,8.02
2023-04-25T00:49:25.345Z,8.00
2023-04-25T00:51:52.011Z,8.00
2023-04-25T00:54:18.699Z,8.00
2023-04-25T00:56:46.347Z,8.00
2023-04-25T00:59:14.662Z,8.00
2023-04-25T01:01:42.733Z,7.99
2023-04-25T01:04:09.645Z,7.98
2023-04-25T01:06:36.611Z,7.94
2023-04-25T01:09:04.078Z,7.89
2023-04-25T01:11:30.815Z,7.88
2023-04-25T01:13:57.722Z,7.85
2023-04-25T01:16:26.004Z,7.85
2023-04-25T01:18:52.810Z,7.83
2023-04-25T01:21:21.751Z,7.81
2023-04-25T01:23:48.797Z,7.80
2023-04-25T01:26:16.700Z,7.78
2023-04-25T01:28:43.767Z,7.75
2023-04-25T01:31:11.499Z,7.75
2023-04-25T01:33:38.379Z,7.74
2023-04-25T01:36:06.138Z,7.72
2023-04-25T01:38:34.967Z,7.71
2023-04-25T01:41:02.388Z,7.70
2023-04-25T01:43:29.248Z,7.69
2023-04-25T01:45:57.980Z,7.69
2023-04-25T01:48:24.734Z,7.70
2023-04-25T01:50:51.398Z,7.70
2023-04-25T01:53:19.447Z,7.70
2023-04-25T01:55:47.500Z,7.72
2023-04-25T01:58:14.281Z,7.73
2023-04-25T02:00:41.913Z,7.75
2023-04-25T02:03:09.639Z,7.73
2023-04-25T02:05:37.624Z,7.72
2023-04-25T02:08:05.914Z,7.70
2023-04-25T02:10:32.685Z,7.69
2023-04-25T02:13:00.935Z,7.70
2023-04-25T02:15:28.096Z,7.69
2023-04-25T02:17:54.931Z,7.68
2023-04-25T02:20:22.613Z,7.68
2023-04-25T02:22:49.257Z,7.67
2023-04-25T02:25:17.112Z,7.68
2023-04-25T02:27:44.230Z,7.67
2023-04-25T02:30:13.044Z,7.65
2023-04-25T02:32:40.269Z,7.63
2023-04-25T02:35:09.144Z,7.59
2023-04-25T02:37:38.414Z,7.58
2023-04-25T02:40:06.597Z,7.57
2023-04-25T02:42:33.601Z,7.55
2023-04-25T02:45:00.409Z,7.53
2023-04-25T02:47:28.650Z,7.56
2023-04-25T02:49:55.696Z,7.55
2023-04-25T02:52:22.430Z,7.51
2023-04-25T02:54:49.261Z,7.50
2023-04-25T02:57:16.167Z,7.45
2023-04-25T02:59:42.848Z,7.41
2023-04-25T03:02:09.531Z,7.38
2023-04-25T03:04:37.785Z,7.35
2023-04-25T03:07:04.878Z,7.34
2023-04-25T03:09:31.597Z,7.32
2023-04-25T03:11:58.353Z,7.31
2023-04-25T03:14:24.986Z,7.28
2023-04-25T03:17:01.211Z,7.27
2023-04-25T03:19:28.041Z,7.24
2023-04-25T03:21:56.061Z,7.22
2023-04-25T03:24:22.979Z,7.19
2023-04-25T03:26:49.728Z,7.16
2023-04-25T03:29:16.455Z,7.14
2023-04-25T03:31:43.157Z,7.13
2023-04-25T03:34:09.831Z,7.08
2023-04-25T03:36:36.610Z,7.04
2023-04-25T03:39:04.635Z,7.01
2023-04-25T03:41:31.826Z,6.97
2023-04-25T03:43:58.566Z,6.93
2023-04-25T03:46:25.742Z,6.89
2023-04-25T03:48:52.445Z,6.86
2023-04-25T03:51:19.182Z,6.82
2023-04-25T03:53:45.986Z,6.77
2023-04-25T03:56:14.167Z,6.76
2023-04-25T03:58:40.850Z,6.73
2023-04-25T04:01:08.874Z,6.71
2023-04-25T04:03:37.094Z,6.68
2023-04-25T04:06:05.085Z,6.67
2023-04-25T04:08:31.821Z,6.65
2023-04-25T04:10:58.777Z,6.63
2023-04-25T04:13:28.483Z,6.65
2023-04-25T04:15:56.639Z,6.63
2023-04-25T04:18:23.474Z,6.60
2023-04-25T04:20:50.761Z,6.57
2023-04-25T04:23:17.714Z,6.57
2023-04-25T04:25:44.619Z,6.55
2023-04-25T04:28:12.105Z,6.56
2023-04-25T04:30:40.550Z,6.53
2023-04-25T04:33:08.423Z,6.51
2023-04-25T04:35:35.501Z,6.51
2023-04-25T04:38:02.316Z,6.49
2023-04-25T04:40:29.076Z,6.48
2023-04-25T04:42:57.551Z,6.49
2023-04-25T04:45:24.747Z,6.47
2023-04-25T04:47:53.212Z,6.44
2023-04-25T04:50:20.205Z,6.40
2023-04-25T04:52:47.023Z,6.40
2023-04-25T04:55:16.303Z,6.40
2023-04-25T04:57:43.300Z,6.39
2023-04-25T05:00:12.553Z,6.41
2023-04-25T05:02:39.614Z,6.41
2023-04-25T05:05:09.048Z,6.38
2023-04-25T05:07:35.958Z,6.38
2023-04-25T05:10:02.793Z,6.42
2023-04-25T05:12:29.475Z,6.37
2023-04-25T05:14:56.142Z,6.29
2023-04-25T05:17:22.904Z,6.28
2023-04-25T05:19:49.568Z,6.26
2023-04-25T05:22:17.635Z,6.21
2023-04-25T05:24:44.280Z,6.18
2023-04-25T05:27:11.029Z,6.21
2023-04-25T05:29:37.679Z,6.28
2023-04-25T05:32:04.688Z,6.33
2023-04-25T05:34:31.464Z,6.37
2023-04-25T05:36:58.210Z,6.43
2023-04-25T05:39:26.319Z,6.45
2023-04-25T05:41:53.149Z,6.45
2023-04-25T05:44:22.315Z,6.46
2023-04-25T05:46:49.189Z,6.51
2023-04-25T05:49:17.561Z,6.55
2023-04-25T05:51:46.231Z,6.55
2023-04-25T05:54:12.907Z,6.54
2023-04-25T05:56:41.039Z,6.52
2023-04-25T05:59:07.757Z,6.52
2023-04-25T06:01:34.510Z,6.51
2023-04-25T06:04:01.496Z,6.53
2023-04-25T06:06:28.624Z,6.55
2023-04-25T06:08:56.421Z,6.57
2023-04-25T06:11:23.216Z,6.63
2023-04-25T06:13:51.566Z,6.73
2023-04-25T06:16:18.469Z,6.77
2023-04-25T06:18:45.337Z,6.82
2023-04-25T06:21:12.023Z,6.91
2023-04-25T06:23:38.756Z,6.96
2023-04-25T06:26:05.673Z,7.02
2023-04-25T06:28:32.568Z,7.06
2023-04-25T06:31:00.667Z,7.13
2023-04-25T06:33:27.778Z,7.16
2023-04-25T06:35:54.495Z,7.19
2023-04-25T06:38:21.209Z,7.26
2023-04-25T06:40:48.207Z,7.33
2023-04-25T06:43:15.155Z,7.34
2023-04-25T06:45:43.748Z,7.32
2023-04-25T06:48:12.499Z,7.32
2023-04-25T06:50:39.151Z,7.32
2023-04-25T06:53:05.996Z,7.36
2023-04-25T06:55:32.674Z,7.37
2023-04-25T06:57:59.393Z,7.41
2023-04-25T07:00:26.245Z,7.45
2023-04-25T07:02:53.102Z,7.48
2023-04-25T07:05:21.839Z,7.54
2023-04-25T07:07:48.548Z,7.59
2023-04-25T07:10:15.165Z,7.64
2023-04-25T07:12:41.857Z,7.66
2023-04-25T07:15:11.079Z,7.69
2023-04-25T07:17:37.881Z,7.64
2023-04-25T07:20:05.530Z,7.64
2023-04-25T07:22:33.510Z,7.68
2023-04-25T07:25:00.174Z,7.73
2023-04-25T07:27:26.994Z,7.81
2023-04-25T07:29:54.033Z,7.86
2023-04-25T07:32:20.867Z,7.93
2023-04-25T07:34:47.874Z,7.99
2023-04-25T07:37:15.290Z,8.08
2023-04-25T07:39:44.470Z,8.15
2023-04-25T07:42:11.197Z,8.24
2023-04-25T07:44:39.883Z,8.31
2023-04-25T07:47:08.073Z,8.39
2023-04-25T07:49:35.743Z,8.37
2023-04-25T07:52:03.030Z,8.40
2023-04-25T07:54:29.862Z,8.44
2023-04-25T07:56:57.948Z,8.49
2023-04-25T07:59:25.327Z,8.50
2023-04-25T08:01:52.108Z,8.56
2023-04-25T08:04:18.965Z,8.63
2023-04-25T08:06:46.607Z,8.72
2023-04-25T08:09:13.489Z,8.75
2023-04-25T08:11:41.553Z,8.79
2023-04-25T08:14:11.211Z,8.75
2023-04-25T08:16:38.004Z,8.74
2023-04-25T08:19:05.926Z,8.74
2023-04-25T08:21:32.975Z,8.84
2023-04-25T08:23:59.703Z,8.93
2023-04-25T08:26:26.511Z,9.00
2023-04-25T08:28:53.435Z,9.00
2023-04-25T08:31:21.870Z,9.07
2023-04-25T08:33:48.904Z,9.16
2023-04-25T08:36:21.426Z,9.25
2023-04-25T08:38:59.948Z,9.36
2023-04-25T08:41:33.280Z,9.41
2023-04-25T08:44:02.141Z,9.48
2023-04-25T08:46:32.838Z,9.60
2023-04-25T08:49:04.617Z,9.69
2023-04-25T08:51:32.865Z,9.71
2023-04-25T08:54:27.916Z,9.72
2023-04-25T08:57:02.873Z,9.71
2023-04-25T08:59:31.182Z,9.65
2023-04-25T09:02:02.294Z,9.59
2023-04-25T09:04:31.602Z,9.55
2023-04-25T09:06:59.552Z,9.50
2023-04-25T09:09:26.373Z,9.40
2023-04-25T09:11:56.293Z,9.36
2023-04-25T09:14:26.934Z,9.29
2023-04-25T09:17:04.490Z,9.24
2023-04-25T09:19:40.139Z,9.21
2023-04-25T09:22:09.187Z,9.23
2023-04-25T09:24:37.976Z,9.17
2023-04-25T09:27:06.431Z,9.19
2023-04-25T09:29:34.586Z,9.22
2023-04-25T09:32:20.812Z,9.13
2023-04-25T09:34:52.970Z,9.15
2023-04-25T09:37:21.843Z,9.17
2023-04-25T09:39:49.657Z,9.24
2023-04-25T09:42:17.781Z,9.26
2023-04-25T09:44:46.098Z,9.29
2023-04-25T09:47:14.593Z,9.34
2023-04-25T09:49:43.839Z,9.34
2023-04-25T09:52:16.468Z,9.40
2023-04-25T09:54:43.544Z,9.44
2023-04-25T09:57:15.003Z,9.53
2023-04-25T09:59:45.581Z,9.62
2023-04-25T10:02:13.469Z,9.71
2023-04-25T10:04:41.208Z,9.79
2023-04-25T10:07:10.088Z,9.85
2023-04-25T10:09:40.576Z,9.88
2023-04-25T10:12:08.336Z,9.92
2023-04-25T10:14:35.704Z,10.03
2023-04-25T10:17:04.129Z,10.19
2023-04-25T10:19:31.336Z,10.31
2023-04-25T10:22:05.912Z,10.39
2023-04-25T10:24:36.298Z,10.33
2023-04-25T10:27:03.769Z,10.28
2023-04-25T10:29:30.750Z,10.24
2023-04-25T10:31:58.290Z,10.19
2023-04-25T10:34:38.839Z,10.26
2023-04-25T10:37:10.546Z,10.40
2023-04-25T10:39:41.873Z,10.46
2023-04-25T10:42:11.619Z,10.51
2023-04-25T10:44:40.411Z,10.55
2023-04-25T10:47:09.425Z,10.46
2023-04-25T10:49:38.146Z,10.30
2023-04-25T10:52:19.879Z,10.10
2023-04-25T10:54:53.611Z,10.06
2023-04-25T10:57:37.029Z,10.07
2023-04-25T11:00:12.164Z,10.12
2023-04-25T11:02:42.531Z,10.23
2023-04-25T11:05:10.031Z,10.25
2023-04-25T11:07:47.998Z,10.30
2023-04-25T11:10:18.761Z,10.40
2023-04-25T11:12:47.733Z,10.47
2023-04-25T11:15:15.058Z,10.52
2023-04-25T11:17:42.401Z,10.58
2023-04-25T11:20:12.430Z,10.69
2023-04-25T11:22:42.986Z,10.87
2023-04-25T11:25:12.680Z,11.02
2023-04-25T11:27:51.287Z,11.18
2023-04-25T11:30:18.772Z,11.19
2023-04-25T11:32:46.528Z,11.26
2023-04-25T11:35:14.155Z,11.24
2023-04-25T11:37:41.840Z,11.17
2023-04-25T11:40:10.697Z,11.15
2023-04-25T11:42:39.177Z,11.14
2023-04-25T11:45:08.901Z,11.20
2023-04-25T11:47:35.779Z,11.15
2023-04-25T11:50:05.061Z,11.22
2023-04-25T11:52:40.122Z,11.25
2023-04-25T11:55:13.645Z,11.22
2023-04-25T11:57:41.642Z,11.05
2023-04-25T12:00:15.722Z,10.99
2023-04-25T12:02:45.286Z,10.99
2023-04-25T12:05:30.262Z,11.00
2023-04-25T12:07:59.275Z,10.97
2023-04-25T12:10:26.916Z,10.92
2023-04-25T12:12:53.837Z,10.92
2023-04-25T12:15:29.937Z,10.93
2023-04-25T12:17:56.767Z,10.92
2023-04-25T12:20:29.734Z,10.86
2023-04-25T12:22:58.409Z,10.79
2023-04-25T12:25:39.982Z,10.66
2023-04-25T12:28:15.060Z,10.48
2023-04-25T12:30:58.664Z,10.32
2023-04-25T12:33:26.475Z,10.20
2023-04-25T12:35:53.807Z,10.17
2023-04-25T12:38:28.459Z,10.18
2023-04-25T12:40:56.445Z,10.20
2023-04-25T12:43:23.616Z,10.15
2023-04-25T12:45:51.581Z,10.17
2023-04-25T12:48:20.531Z,10.22
2023-04-25T12:50:50.722Z,10.20
2023-04-25T12:53:17.858Z,10.23
2023-04-25T12:55:47.074Z,10.22
2023-04-25T12:58:15.179Z,10.21
2023-04-25T13:00:42.010Z,10.26
2023-04-25T13:03:10.221Z,10.32
2023-04-25T13:05:38.763Z,10.32
2023-04-25T13:08:05.807Z,10.38
2023-04-25T13:10:34.826Z,10.44
2023-04-25T13:13:02.378Z,10.48
2023-04-25T13:15:29.679Z,10.55
2023-04-25T13:17:57.219Z,10.59
2023-04-25T13:20:31.280Z,10.70
2023-04-25T13:23:00.396Z,10.88
2023-04-25T13:25:28.830Z,10.96
2023-04-25T13:27:55.562Z,11.02
2023-04-25T13:30:22.382Z,10.97
2023-04-25T13:32:49.154Z,10.97
2023-04-25T13:35:16.376Z,10.99
2023-04-25T13:37:43.134Z,11.05
2023-04-25T13:40:12.860Z,11.15
2023-04-25T13:42:41.027Z,11.27
2023-04-25T13:45:08.911Z,11.32
2023-04-25T13:47:35.876Z,11.31
2023-04-25T13:50:05.032Z,11.16
2023-04-25T13:52:31.811Z,10.99
2023-04-25T13:54:58.833Z,10.90
2023-04-25T13:57:27.036Z,11.00
2023-04-25T13:59:54.768Z,11.10
2023-04-25T14:02:21.531Z,11.11
2023-04-25T14:04:48.397Z,11.06
2023-04-25T14:07:18.920Z,11.01
2023-04-25T14:09:45.797Z,10.95
2023-04-25T14:12:12.652Z,10.97
2023-04-25T14:14:40.792Z,11.09
2023-04-25T14:17:07.893Z,11.16
2023-04-25T14:19:34.895Z,11.21
2023-04-25T14:22:02.001Z,11.11
2023-04-25T14:24:29.149Z,10.99
2023-04-25T14:26:55.978Z,10.82
2023-04-25T14:29:23.235Z,10.76
2023-04-25T14:31:51.612Z,10.78
2023-04-25T14:34:18.268Z,10.83
2023-04-25T14:36:45.606Z,10.84
2023-04-25T14:39:13.501Z,10.89
2023-04-25T14:41:40.521Z,11.01
2023-04-25T14:44:09.367Z,11.07
2023-04-25T14:46:36.703Z,11.12
2023-04-25T14:49:05.877Z,11.11
2023-04-25T14:51:32.790Z,11.08
2023-04-25T14:53:59.529Z,11.12
2023-04-25T14:56:26.486Z,11.16
2023-04-25T14:58:53.454Z,11.24
2023-04-25T15:01:21.734Z,11.39
2023-04-25T15:03:49.612Z,11.53
2023-04-25T15:06:18.000Z,11.41
2023-04-25T15:08:44.833Z,11.46
2023-04-25T15:11:12.301Z,11.47
2023-04-25T15:13:39.316Z,11.33
2023-04-25T15:16:07.368Z,11.19
2023-04-25T15:18:34.103Z,11.16
2023-04-25T15:21:02.390Z,11.13
2023-04-25T15:23:31.422Z,11.06
2023-04-25T15:25:58.251Z,11.07
2023-04-25T15:28:27.571Z,11.07
2023-04-25T15:30:54.737Z,11.02
2023-04-25T15:33:21.513Z,10.98
2023-04-25T15:35:48.334Z,10.87
2023-04-25T15:38:15.013Z,10.71
2023-04-25T15:40:43.377Z,10.65
2023-04-25T15:43:15.740Z,10.62
2023-04-25T15:45:43.038Z,10.65
2023-04-25T15:48:09.920Z,10.56
2023-04-25T15:50:37.338Z,10.51
2023-04-25T15:53:05.721Z,10.52
2023-04-25T15:55:34.324Z,10.57
2023-04-25T15:58:02.486Z,10.64
2023-04-25T16:00:29.555Z,10.64
2023-04-25T16:02:56.766Z,10.67
2023-04-25T16:05:23.794Z,10.77
2023-04-25T16:07:53.946Z,10.78
2023-04-25T16:10:22.089Z,10.78
2023-04-25T16:12:49.596Z,10.79
2023-04-25T16:15:17.997Z,10.75
2023-04-25T16:17:44.871Z,10.73
2023-04-25T16:20:13.379Z,10.78
2023-04-25T16:22:41.851Z,10.85
2023-04-25T16:25:09.599Z,10.91
2023-04-25T16:27:38.938Z,10.90
2023-04-25T16:30:08.132Z,10.85
2023-04-25T16:32:37.983Z,10.72
2023-04-25T16:35:05.337Z,10.62
2023-04-25T16:37:32.095Z,10.58
2023-04-25T16:40:00.560Z,10.52
2023-04-25T16:42:27.196Z,10.46
2023-04-25T16:44:54.232Z,10.43
2023-04-25T16:47:21.098Z,10.35
2023-04-25T16:49:49.335Z,10.28
2023-04-25T16:52:16.345Z,10.25
2023-04-25T16:54:43.367Z,10.19
2023-04-25T16:57:11.219Z,10.13
2023-04-25T16:59:38.157Z,10.10
2023-04-25T17:02:05.164Z,10.00
2023-04-25T17:04:33.751Z,9.94
2023-04-25T17:07:01.846Z,9.91
2023-04-25T17:09:29.424Z,9.92
2023-04-25T17:11:57.919Z,9.77
2023-04-25T17:14:24.774Z,9.67
2023-04-25T17:16:51.634Z,9.57
2023-04-25T17:19:18.368Z,9.51
2023-04-25T17:21:45.283Z,9.52
2023-04-25T17:24:15.789Z,9.54
2023-04-25T17:26:42.768Z,9.46
2023-04-25T17:29:09.433Z,9.40
2023-04-25T17:31:36.712Z,9.42
2023-04-25T17:34:05.076Z,9.37
2023-04-25T17:36:31.993Z,9.30
2023-04-25T17:38:58.918Z,9.28
2023-04-25T17:41:27.126Z,9.24
2023-04-25T17:43:53.826Z,9.23
2023-04-25T17:46:21.276Z,9.25
2023-04-25T17:48:48.730Z,9.20
2023-04-25T17:51:15.623Z,9.24
2023-04-25T17:53:42.379Z,9.27
2023-04-25T17:56:25.350Z,9.25
2023-04-25T17:58:56.406Z,9.25
2023-04-25T18:01:23.508Z,9.24
2023-04-25T18:03:51.163Z,9.23
2023-04-25T18:06:18.425Z,9.19
2023-04-25T18:08:45.386Z,9.13
2023-04-25T18:11:12.507Z,9.08
2023-04-25T18:13:39.649Z,9.07
2023-04-25T18:16:08.538Z,9.07
2023-04-25T18:18:36.360Z,9.04
2023-04-25T18:21:05.355Z,9.01
2023-04-25T18:23:34.090Z,9.01
2023-04-25T18:26:01.296Z,9.06
2023-04-25T18:28:28.106Z,9.09
2023-04-25T18:30:54.937Z,9.09
2023-04-25T18:33:23.123Z,9.11
2023-04-25T18:35:58.714Z,9.06
2023-04-25T18:41:12.981Z,8.97
2023-04-25T18:43:46.156Z,8.93
2023-04-25T18:46:12.853Z,8.88
2023-04-25T18:48:40.895Z,8.83
2023-04-25T18:51:07.647Z,8.85
2023-04-25T18:53:34.663Z,8.85
2023-04-25T18:56:03.230Z,8.81
2023-04-25T18:58:29.914Z,8.78
2023-04-25T19:00:56.965Z,8.73
2023-04-25T19:03:24.023Z,8.65
2023-04-25T19:05:52.679Z,8.57
2023-04-25T19:08:19.456Z,8.44
2023-04-25T19:10:46.862Z,8.38
2023-04-25T19:13:13.936Z,8.33
2023-04-25T19:15:40.708Z,8.31
2023-04-25T19:18:07.564Z,8.29
2023-04-25T19:20:34.464Z,8.18
2023-04-25T19:23:02.469Z,8.09
2023-04-25T19:25:29.188Z,8.07
2023-04-25T19:27:57.363Z,8.05
2023-04-25T19:30:26.362Z,8.04
2023-04-25T19:32:53.405Z,8.02
2023-04-25T19:35:21.865Z,8.04
2023-04-25T19:37:50.063Z,8.02
2023-04-25T19:40:20.318Z,7.99
2023-04-25T19:42:47.739Z,7.96
2023-04-25T19:45:14.510Z,7.93
2023-04-25T19:47:42.051Z,7.89
2023-04-25T19:50:09.943Z,7.84
2023-04-25T19:52:37.574Z,7.78
2023-04-25T19:55:06.085Z,7.74
2023-04-25T19:57:36.822Z,7.69
2023-04-25T20:00:08.576Z,7.64
2023-04-25T20:02:35.170Z,7.62
2023-04-25T20:05:02.280Z,7.56
2023-04-25T20:07:29.604Z,7.52
2023-04-25T20:09:56.495Z,7.50
2023-04-25T20:12:23.334Z,7.50
2023-04-25T20:14:51.568Z,7.47
2023-04-25T20:17:18.291Z,7.47
2023-04-25T20:19:45.106Z,7.50
2023-04-25T20:22:12.083Z,7.54
2023-04-25T20:24:39.875Z,7.56
2023-04-25T20:27:07.375Z,7.58
2023-04-25T20:29:34.246Z,7.59
2023-04-25T20:32:03.530Z,7.58
2023-04-25T20:34:31.675Z,7.56
2023-04-25T20:36:59.288Z,7.55
2023-04-25T20:39:26.267Z,7.56
2023-04-25T20:41:53.054Z,7.53
2023-04-25T20:44:22.700Z,7.51
2023-04-25T20:46:49.721Z,7.47
2023-04-25T20:49:18.071Z,7.44
2023-04-25T20:51:44.774Z,7.41
2023-04-25T20:54:14.295Z,7.40
2023-04-25T20:56:41.412Z,7.41
2023-04-25T20:59:09.145Z,7.37
2023-04-25T21:01:37.884Z,7.35
2023-04-25T21:04:06.438Z,7.32
2023-04-25T21:06:34.932Z,7.30
2023-04-25T21:09:01.642Z,7.26
2023-04-25T21:11:29.189Z,7.24
2023-04-25T21:13:56.118Z,7.23
2023-04-25T21:16:23.037Z,7.21
2023-04-25T21:18:50.025Z,7.20
2023-04-25T21:21:16.913Z,7.18
2023-04-25T21:23:44.976Z,7.14
2023-04-25T21:26:11.703Z,7.10
2023-04-25T21:28:38.473Z,7.07
2023-04-25T21:31:05.468Z,7.03
2023-04-25T21:33:32.356Z,7.00
2023-04-25T21:35:59.210Z,6.97
2023-04-25T21:38:26.095Z,6.94
2023-04-25T21:40:54.227Z,6.90
2023-04-25T21:43:21.522Z,6.88
2023-04-25T21:46:14.823Z,6.86
2023-04-25T21:48:34.908Z,6.84
2023-04-25T21:51:02.367Z,6.80
2023-04-25T21:53:29.020Z,6.77
2023-04-25T21:55:57.070Z,6.74
2023-04-25T21:58:23.760Z,6.73
2023-04-25T22:00:50.986Z,6.69
2023-04-25T22:03:20.167Z,6.68
2023-04-25T22:05:50.303Z,6.66
2023-04-25T22:08:17.448Z,6.64
2023-04-25T22:10:44.175Z,6.63
2023-04-25T22:13:12.222Z,6.60
2023-04-25T22:15:38.957Z,6.58
2023-04-25T22:18:06.095Z,6.56
2023-04-25T22:20:33.276Z,6.53
2023-04-25T22:23:00.193Z,6.51
2023-04-25T22:25:27.307Z,6.51
2023-04-25T22:27:55.425Z,6.50
2023-04-25T22:30:24.147Z,6.48
2023-04-25T22:32:50.911Z,6.46
2023-04-25T22:35:17.662Z,6.44
2023-04-25T22:37:44.884Z,6.41
2023-04-25T22:40:13.318Z,6.38
2023-04-25T22:42:40.533Z,6.36
2023-04-25T22:45:08.197Z,6.37
2023-04-25T22:47:40.381Z,6.34
2023-04-25T22:50:12.966Z,6.33
2023-04-25T22:52:40.566Z,6.32
2023-04-25T22:55:07.807Z,6.31
2023-04-25T22:57:37.634Z,6.29
2023-04-25T23:00:10.405Z,6.29
2023-04-25T23:02:37.262Z,6.29
2023-04-25T23:05:07.057Z,6.28
2023-04-25T23:07:34.092Z,6.26
2023-04-25T23:10:01.015Z,6.24
2023-04-25T23:12:28.005Z,6.19
2023-04-25T23:14:56.845Z,6.15
2023-04-25T23:17:23.450Z,6.13
2023-04-25T23:19:50.141Z,6.08
2023-04-25T23:22:18.278Z,6.04
2023-04-25T23:24:46.103Z,6.00
2023-04-25T23:27:12.853Z,5.96
2023-04-25T23:29:40.672Z,5.94
2023-04-25T23:32:08.939Z,5.95
2023-04-25T23:34:35.952Z,5.93
2023-04-25T23:37:04.426Z,5.94
2023-04-25T23:39:32.609Z,5.92
2023-04-25T23:42:00.414Z,5.90
2023-04-25T23:44:28.492Z,5.86
2023-04-25T23:46:55.699Z,5.84
2023-04-25T23:49:22.664Z,5.82
2023-04-25T23:51:49.605Z,5.83
2023-04-25T23:54:16.567Z,5.82
2023-04-25T23:56:44.573Z,5.80
2023-04-25T23:59:11.411Z,5.78
